sensor_id;sensor_type;location;lat;lon;timestamp;pressure;altitude;pressure_sealevel;temperature;humidity
55424;BME280;41294;42.666;23.350;2023-02-03T00:00:07;95236.81;;;4.49;75.88
55424;BME280;41294;42.666;23.350;2023-02-03T00:02:32;95239.09;;;4.44;76.48
55424;BME280;41294;42.666;23.350;2023-02-03T00:04:57;95233.13;;;4.47;76.53
55424;BME280;41294;42.666;23.350;2023-02-03T00:07:23;95225.47;;;4.33;77.13
55424;BME280;41294;42.666;23.350;2023-02-03T00:09:48;95231.81;;;4.32;78.20
55424;BME280;41294;42.666;23.350;2023-02-03T00:12:14;95237.06;;;4.28;79.01
55424;BME280;41294;42.666;23.350;2023-02-03T00:14:39;95241.16;;;4.26;79.84
55424;BME280;41294;42.666;23.350;2023-02-03T00:17:06;95244.09;;;4.31;79.49
55424;BME280;41294;42.666;23.350;2023-02-03T00:19:31;95252.38;;;4.23;80.33
55424;BME280;41294;42.666;23.350;2023-02-03T00:21:57;95250.66;;;4.09;81.08
55424;BME280;41294;42.666;23.350;2023-02-03T00:24:22;95244.66;;;4.12;81.22
55424;BME280;41294;42.666;23.350;2023-02-03T00:26:48;95254.72;;;4.14;81.61
55424;BME280;41294;42.666;23.350;2023-02-03T00:29:14;95244.56;;;4.23;81.22
55424;BME280;41294;42.666;23.350;2023-02-03T00:31:39;95255.44;;;4.14;81.95
55424;BME280;41294;42.666;23.350;2023-02-03T00:34:05;95251.31;;;4.20;82.19
55424;BME280;41294;42.666;23.350;2023-02-03T00:36:31;95251.63;;;4.22;82.69
55424;BME280;41294;42.666;23.350;2023-02-03T00:38:56;95265.50;;;4.12;83.37
55424;BME280;41294;42.666;23.350;2023-02-03T00:41:22;95267.38;;;4.12;84.04
55424;BME280;41294;42.666;23.350;2023-02-03T00:43:48;95271.25;;;3.97;85.27
55424;BME280;41294;42.666;23.350;2023-02-03T00:46:15;95272.25;;;4.06;85.14
55424;BME280;41294;42.666;23.350;2023-02-03T00:48:40;95280.41;;;4.12;84.96
55424;BME280;41294;42.666;23.350;2023-02-03T00:51:06;95280.13;;;4.03;85.17
55424;BME280;41294;42.666;23.350;2023-02-03T00:53:31;95274.44;;;4.15;85.09
55424;BME280;41294;42.666;23.350;2023-02-03T00:55:57;95278.16;;;4.14;85.07
55424;BME280;41294;42.666;23.350;2023-02-03T00:58:22;95286.38;;;4.09;85.51
55424;BME280;41294;42.666;23.350;2023-02-03T01:00:47;95284.19;;;4.04;86.07
55424;BME280;41294;42.666;23.350;2023-02-03T01:03:13;95285.69;;;4.05;85.69
55424;BME280;41294;42.666;23.350;2023-02-03T01:05:39;95287.63;;;3.94;86.15
55424;BME280;41294;42.666;23.350;2023-02-03T01:08:04;95293.84;;;4.07;85.73
55424;BME280;41294;42.666;23.350;2023-02-03T01:10:29;95300.47;;;4.15;85.79
55424;BME280;41294;42.666;23.350;2023-02-03T01:12:55;95298.06;;;3.94;87.42
55424;BME280;41294;42.666;23.350;2023-02-03T01:15:21;95301.72;;;4.00;88.00
55424;BME280;41294;42.666;23.350;2023-02-03T01:17:46;95296.34;;;3.77;89.31
55424;BME280;41294;42.666;23.350;2023-02-03T01:20:12;95286.66;;;3.78;89.67
55424;BME280;41294;42.666;23.350;2023-02-03T01:22:38;95285.06;;;3.91;88.91
55424;BME280;41294;42.666;23.350;2023-02-03T01:25:04;95287.97;;;4.00;87.79
55424;BME280;41294;42.666;23.350;2023-02-03T01:27:31;95278.53;;;3.72;87.50
55424;BME280;41294;42.666;23.350;2023-02-03T01:29:56;95269.19;;;3.78;87.55
55424;BME280;41294;42.666;23.350;2023-02-03T01:32:22;95269.59;;;3.73;87.36
55424;BME280;41294;42.666;23.350;2023-02-03T01:34:47;95273.31;;;3.76;86.56
55424;BME280;41294;42.666;23.350;2023-02-03T01:37:13;95286.41;;;3.62;86.13
55424;BME280;41294;42.666;23.350;2023-02-03T01:39:41;95277.81;;;3.68;85.82
55424;BME280;41294;42.666;23.350;2023-02-03T01:42:11;95295.75;;;3.59;85.97
55424;BME280;41294;42.666;23.350;2023-02-03T01:44:46;95300.13;;;3.69;85.47
55424;BME280;41294;42.666;23.350;2023-02-03T01:49:48;95309.03;;;3.72;85.42
55424;BME280;41294;42.666;23.350;2023-02-03T01:52:15;95309.75;;;3.76;84.82
55424;BME280;41294;42.666;23.350;2023-02-03T01:54:43;95296.81;;;3.62;85.25
55424;BME280;41294;42.666;23.350;2023-02-03T01:57:24;95301.03;;;3.49;85.68
55424;BME280;41294;42.666;23.350;2023-02-03T01:59:53;95309.50;;;3.56;85.58
55424;BME280;41294;42.666;23.350;2023-02-03T02:02:20;95302.84;;;3.55;85.45
55424;BME280;41294;42.666;23.350;2023-02-03T02:07:18;95304.72;;;3.51;85.93
55424;BME280;41294;42.666;23.350;2023-02-03T02:09:44;95302.84;;;3.52;85.21
55424;BME280;41294;42.666;23.350;2023-02-03T02:12:10;95315.84;;;3.55;85.00
55424;BME280;41294;42.666;23.350;2023-02-03T02:14:35;95310.19;;;3.64;84.69
55424;BME280;41294;42.666;23.350;2023-02-03T02:34:13;95326.66;;;3.50;84.10
55424;BME280;41294;42.666;23.350;2023-02-03T02:36:55;95328.19;;;3.44;84.35
55424;BME280;41294;42.666;23.350;2023-02-03T02:39:37;95330.41;;;3.46;84.31
55424;BME280;41294;42.666;23.350;2023-02-03T02:42:13;95337.06;;;3.50;83.78
55424;BME280;41294;42.666;23.350;2023-02-03T02:44:51;95341.91;;;3.48;84.17
55424;BME280;41294;42.666;23.350;2023-02-03T02:47:19;95338.53;;;3.51;83.57
55424;BME280;41294;42.666;23.350;2023-02-03T02:50:02;95328.50;;;3.53;83.31
55424;BME280;41294;42.666;23.350;2023-02-03T02:52:31;95334.84;;;3.49;83.20
55424;BME280;41294;42.666;23.350;2023-02-03T02:55:07;95334.50;;;3.43;82.65
55424;BME280;41294;42.666;23.350;2023-02-03T02:57:35;95333.41;;;3.44;82.70
55424;BME280;41294;42.666;23.350;2023-02-03T03:00:03;95340.78;;;3.49;82.38
55424;BME280;41294;42.666;23.350;2023-02-03T03:02:34;95324.50;;;3.38;82.77
55424;BME280;41294;42.666;23.350;2023-02-03T03:05:00;95333.09;;;3.35;82.68
55424;BME280;41294;42.666;23.350;2023-02-03T03:07:26;95331.66;;;3.27;82.73
55424;BME280;41294;42.666;23.350;2023-02-03T03:09:56;95344.63;;;3.31;82.87
55424;BME280;41294;42.666;23.350;2023-02-03T03:12:28;95342.78;;;3.24;82.35
55424;BME280;41294;42.666;23.350;2023-02-03T03:15:11;95349.53;;;3.15;82.35
55424;BME280;41294;42.666;23.350;2023-02-03T03:17:41;95353.25;;;3.18;82.02
55424;BME280;41294;42.666;23.350;2023-02-03T03:20:12;95352.44;;;3.27;81.01
55424;BME280;41294;42.666;23.350;2023-02-03T03:22:44;95364.72;;;3.23;80.64
55424;BME280;41294;42.666;23.350;2023-02-03T03:25:17;95356.97;;;3.17;80.93
55424;BME280;41294;42.666;23.350;2023-02-03T03:27:57;95356.19;;;3.23;80.49
55424;BME280;41294;42.666;23.350;2023-02-03T03:30:27;95352.13;;;3.19;80.37
55424;BME280;41294;42.666;23.350;2023-02-03T03:32:55;95350.69;;;3.11;79.79
55424;BME280;41294;42.666;23.350;2023-02-03T03:35:21;95358.47;;;3.11;79.29
55424;BME280;41294;42.666;23.350;2023-02-03T03:37:58;95363.69;;;3.11;79.23
55424;BME280;41294;42.666;23.350;2023-02-03T03:42:56;95366.69;;;2.99;79.64
55424;BME280;41294;42.666;23.350;2023-02-03T03:48:11;95363.34;;;3.02;79.53
55424;BME280;41294;42.666;23.350;2023-02-03T03:50:45;95374.09;;;3.04;79.37
55424;BME280;41294;42.666;23.350;2023-02-03T03:53:15;95361.88;;;3.01;79.72
55424;BME280;41294;42.666;23.350;2023-02-03T03:55:42;95368.50;;;3.09;79.22
55424;BME280;41294;42.666;23.350;2023-02-03T03:58:14;95364.38;;;3.15;79.23
55424;BME280;41294;42.666;23.350;2023-02-03T04:00:42;95360.75;;;3.02;79.50
55424;BME280;41294;42.666;23.350;2023-02-03T04:03:15;95372.22;;;3.08;79.74
55424;BME280;41294;42.666;23.350;2023-02-03T04:05:42;95369.25;;;3.09;79.36
55424;BME280;41294;42.666;23.350;2023-02-03T04:08:07;95379.63;;;3.13;79.71
55424;BME280;41294;42.666;23.350;2023-02-03T04:10:36;95384.50;;;3.04;79.89
55424;BME280;41294;42.666;23.350;2023-02-03T04:13:03;95382.25;;;3.09;79.77
55424;BME280;41294;42.666;23.350;2023-02-03T04:15:29;95382.97;;;3.13;79.83
55424;BME280;41294;42.666;23.350;2023-02-03T04:17:55;95383.75;;;3.07;80.26
55424;BME280;41294;42.666;23.350;2023-02-03T04:20:22;95390.34;;;3.22;79.76
55424;BME280;41294;42.666;23.350;2023-02-03T04:22:48;95404.13;;;3.12;80.00
55424;BME280;41294;42.666;23.350;2023-02-03T04:25:14;95415.66;;;3.18;80.00
55424;BME280;41294;42.666;23.350;2023-02-03T04:27:40;95420.09;;;3.17;79.99
55424;BME280;41294;42.666;23.350;2023-02-03T04:30:06;95421.97;;;3.17;80.15
55424;BME280;41294;42.666;23.350;2023-02-03T04:32:31;95420.81;;;3.24;79.82
55424;BME280;41294;42.666;23.350;2023-02-03T04:34:59;95429.31;;;3.39;79.41
55424;BME280;41294;42.666;23.350;2023-02-03T04:37:25;95427.44;;;3.39;79.08
55424;BME280;41294;42.666;23.350;2023-02-03T04:39:51;95428.53;;;3.38;78.81
55424;BME280;41294;42.666;23.350;2023-02-03T04:42:17;95431.94;;;3.32;79.29
55424;BME280;41294;42.666;23.350;2023-02-03T04:44:43;95444.22;;;3.24;79.66
55424;BME280;41294;42.666;23.350;2023-02-03T04:47:09;95442.69;;;3.37;79.26
55424;BME280;41294;42.666;23.350;2023-02-03T04:49:34;95452.75;;;3.32;79.44
55424;BME280;41294;42.666;23.350;2023-02-03T04:52:00;95443.03;;;3.39;78.94
55424;BME280;41294;42.666;23.350;2023-02-03T04:54:25;95446.38;;;3.43;78.83
55424;BME280;41294;42.666;23.350;2023-02-03T04:56:51;95445.25;;;3.44;78.36
55424;BME280;41294;42.666;23.350;2023-02-03T04:59:16;95449.78;;;3.30;79.13
55424;BME280;41294;42.666;23.350;2023-02-03T05:01:41;95448.63;;;3.38;79.07
55424;BME280;41294;42.666;23.350;2023-02-03T05:04:07;95450.84;;;3.39;79.02
55424;BME280;41294;42.666;23.350;2023-02-03T05:06:32;95469.84;;;3.29;79.22
55424;BME280;41294;42.666;23.350;2023-02-03T05:08:58;95466.13;;;3.30;79.09
55424;BME280;41294;42.666;23.350;2023-02-03T05:11:23;95463.84;;;3.39;78.89
55424;BME280;41294;42.666;23.350;2023-02-03T05:13:49;95471.66;;;3.36;78.80
55424;BME280;41294;42.666;23.350;2023-02-03T05:16:15;95459.75;;;3.38;78.93
55424;BME280;41294;42.666;23.350;2023-02-03T05:18:40;95467.91;;;3.44;78.67
55424;BME280;41294;42.666;23.350;2023-02-03T05:21:06;95474.22;;;3.53;77.87
55424;BME280;41294;42.666;23.350;2023-02-03T05:23:31;95477.97;;;3.45;78.31
55424;BME280;41294;42.666;23.350;2023-02-03T05:25:57;95484.72;;;3.29;78.83
55424;BME280;41294;42.666;23.350;2023-02-03T05:28:22;95482.47;;;3.34;79.08
55424;BME280;41294;42.666;23.350;2023-02-03T05:30:48;95483.91;;;3.42;79.27
55424;BME280;41294;42.666;23.350;2023-02-03T05:33:14;95482.41;;;3.48;78.29
55424;BME280;41294;42.666;23.350;2023-02-03T05:35:39;95477.25;;;3.38;78.52
55424;BME280;41294;42.666;23.350;2023-02-03T05:38:04;95484.69;;;3.32;78.93
55424;BME280;41294;42.666;23.350;2023-02-03T05:40:30;95475.78;;;3.30;79.41
55424;BME280;41294;42.666;23.350;2023-02-03T05:43:14;95477.28;;;3.31;79.13
55424;BME280;41294;42.666;23.350;2023-02-03T05:45:40;95479.53;;;3.25;79.07
55424;BME280;41294;42.666;23.350;2023-02-03T05:48:07;95485.84;;;3.21;79.04
55424;BME280;41294;42.666;23.350;2023-02-03T05:50:34;95491.41;;;3.26;79.32
55424;BME280;41294;42.666;23.350;2023-02-03T05:53:02;95498.09;;;3.17;79.19
55424;BME280;41294;42.666;23.350;2023-02-03T05:55:28;95497.00;;;3.18;78.96
55424;BME280;41294;42.666;23.350;2023-02-03T05:57:54;95508.53;;;3.14;79.39
55424;BME280;41294;42.666;23.350;2023-02-03T06:00:21;95500.38;;;3.15;79.67
55424;BME280;41294;42.666;23.350;2023-02-03T06:03:00;95511.09;;;3.21;78.87
55424;BME280;41294;42.666;23.350;2023-02-03T06:05:27;95508.16;;;3.15;79.56
55424;BME280;41294;42.666;23.350;2023-02-03T06:07:53;95513.34;;;3.25;79.08
55424;BME280;41294;42.666;23.350;2023-02-03T06:10:19;95508.16;;;3.19;78.86
55424;BME280;41294;42.666;23.350;2023-02-03T06:12:45;95512.22;;;3.16;79.32
55424;BME280;41294;42.666;23.350;2023-02-03T06:15:10;95510.72;;;3.25;79.06
55424;BME280;41294;42.666;23.350;2023-02-03T06:17:36;95509.19;;;3.42;78.31
55424;BME280;41294;42.666;23.350;2023-02-03T06:20:07;95514.19;;;3.87;76.73
55424;BME280;41294;42.666;23.350;2023-02-03T06:22:34;95507.06;;;4.56;74.25
55424;BME280;41294;42.666;23.350;2023-02-03T06:24:59;95510.94;;;5.88;68.67
55424;BME280;41294;42.666;23.350;2023-02-03T06:27:25;95507.84;;;6.72;65.32
55424;BME280;41294;42.666;23.350;2023-02-03T06:29:51;95519.13;;;7.73;60.76
55424;BME280;41294;42.666;23.350;2023-02-03T06:32:16;95519.56;;;8.07;58.78
55424;BME280;41294;42.666;23.350;2023-02-03T06:34:42;95521.19;;;8.52;57.78
55424;BME280;41294;42.666;23.350;2023-02-03T06:37:07;95528.75;;;8.82;55.36
55424;BME280;41294;42.666;23.350;2023-02-03T06:39:33;95527.47;;;9.18;54.04
55424;BME280;41294;42.666;23.350;2023-02-03T06:41:58;95531.56;;;9.35;52.53
55424;BME280;41294;42.666;23.350;2023-02-03T06:44:24;95535.00;;;9.88;51.55
55424;BME280;41294;42.666;23.350;2023-02-03T06:46:50;95541.38;;;10.03;51.71
55424;BME280;41294;42.666;23.350;2023-02-03T06:49:16;95539.94;;;10.52;50.59
55424;BME280;41294;42.666;23.350;2023-02-03T06:51:42;95542.25;;;10.38;49.40
55424;BME280;41294;42.666;23.350;2023-02-03T06:54:09;95540.38;;;10.63;48.46
55424;BME280;41294;42.666;23.350;2023-02-03T06:56:34;95527.72;;;10.83;47.20
55424;BME280;41294;42.666;23.350;2023-02-03T06:59:00;95536.78;;;11.28;46.67
55424;BME280;41294;42.666;23.350;2023-02-03T07:01:25;95523.41;;;11.23;46.13
55424;BME280;41294;42.666;23.350;2023-02-03T07:03:51;95540.63;;;11.02;46.58
55424;BME280;41294;42.666;23.350;2023-02-03T07:06:16;95527.44;;;10.44;47.13
55424;BME280;41294;42.666;23.350;2023-02-03T07:08:42;95524.16;;;10.27;48.54
55424;BME280;41294;42.666;23.350;2023-02-03T07:11:07;95520.78;;;10.64;47.70
55424;BME280;41294;42.666;23.350;2023-02-03T07:13:35;95509.84;;;10.41;47.83
55424;BME280;41294;42.666;23.350;2023-02-03T07:16:01;95507.31;;;10.12;48.41
55424;BME280;41294;42.666;23.350;2023-02-03T07:18:26;95514.28;;;10.44;48.16
55424;BME280;41294;42.666;23.350;2023-02-03T07:20:52;95508.25;;;11.02;46.49
55424;BME280;41294;42.666;23.350;2023-02-03T07:23:18;95506.16;;;10.51;47.24
55424;BME280;41294;42.666;23.350;2023-02-03T07:25:43;95514.13;;;10.72;46.42
55424;BME280;41294;42.666;23.350;2023-02-03T07:28:09;95512.47;;;10.16;47.30
55424;BME280;41294;42.666;23.350;2023-02-03T07:30:34;95529.19;;;10.59;46.94
55424;BME280;41294;42.666;23.350;2023-02-03T07:33:00;95522.25;;;10.77;46.57
55424;BME280;41294;42.666;23.350;2023-02-03T07:35:25;95524.38;;;11.04;45.94
55424;BME280;41294;42.666;23.350;2023-02-03T07:37:51;95509.97;;;11.30;44.61
55424;BME280;41294;42.666;23.350;2023-02-03T07:40:17;95524.75;;;10.81;46.08
55424;BME280;41294;42.666;23.350;2023-02-03T07:42:46;95532.03;;;10.52;45.92
55424;BME280;41294;42.666;23.350;2023-02-03T07:45:13;95533.38;;;10.94;46.28
55424;BME280;41294;42.666;23.350;2023-02-03T07:47:40;95533.25;;;11.44;45.10
55424;BME280;41294;42.666;23.350;2023-02-03T07:50:06;95540.56;;;11.61;44.23
55424;BME280;41294;42.666;23.350;2023-02-03T07:52:32;95535.88;;;11.77;43.69
55424;BME280;41294;42.666;23.350;2023-02-03T07:54:57;95548.78;;;11.29;44.02
55424;BME280;41294;42.666;23.350;2023-02-03T07:57:22;95541.16;;;11.10;44.20
55424;BME280;41294;42.666;23.350;2023-02-03T07:59:48;95536.31;;;10.96;44.33
55424;BME280;41294;42.666;23.350;2023-02-03T08:02:13;95538.03;;;11.24;44.49
55424;BME280;41294;42.666;23.350;2023-02-03T08:04:39;95548.66;;;11.33;44.28
55424;BME280;41294;42.666;23.350;2023-02-03T08:07:04;95549.13;;;11.86;43.33
55424;BME280;41294;42.666;23.350;2023-02-03T08:09:30;95542.81;;;12.35;41.74
55424;BME280;41294;42.666;23.350;2023-02-03T08:11:55;95565.53;;;11.90;42.70
55424;BME280;41294;42.666;23.350;2023-02-03T08:14:20;95551.34;;;12.18;41.83
55424;BME280;41294;42.666;23.350;2023-02-03T08:16:46;95559.97;;;12.40;41.59
55424;BME280;41294;42.666;23.350;2023-02-03T08:19:11;95565.19;;;12.92;41.30
55424;BME280;41294;42.666;23.350;2023-02-03T08:21:37;95573.38;;;12.85;40.84
55424;BME280;41294;42.666;23.350;2023-02-03T08:24:03;95582.34;;;12.87;41.27
55424;BME280;41294;42.666;23.350;2023-02-03T08:26:30;95571.44;;;12.76;41.06
55424;BME280;41294;42.666;23.350;2023-02-03T08:28:55;95571.75;;;12.48;41.07
55424;BME280;41294;42.666;23.350;2023-02-03T08:31:21;95565.94;;;12.62;41.34
55424;BME280;41294;42.666;23.350;2023-02-03T08:33:46;95574.94;;;13.21;40.19
55424;BME280;41294;42.666;23.350;2023-02-03T08:36:11;95575.84;;;13.18;39.87
55424;BME280;41294;42.666;23.350;2023-02-03T08:38:38;95568.53;;;13.49;39.08
55424;BME280;41294;42.666;23.350;2023-02-03T08:41:11;95572.50;;;12.88;40.02
55424;BME280;41294;42.666;23.350;2023-02-03T08:43:37;95578.69;;;13.60;38.95
55424;BME280;41294;42.666;23.350;2023-02-03T08:46:04;95581.16;;;14.08;38.54
55424;BME280;41294;42.666;23.350;2023-02-03T08:48:30;95584.06;;;13.20;38.28
55424;BME280;41294;42.666;23.350;2023-02-03T08:50:56;95584.47;;;12.71;39.99
55424;BME280;41294;42.666;23.350;2023-02-03T08:53:22;95589.56;;;12.96;39.25
55424;BME280;41294;42.666;23.350;2023-02-03T08:55:47;95600.09;;;12.56;39.89
55424;BME280;41294;42.666;23.350;2023-02-03T08:58:13;95595.44;;;11.87;41.66
55424;BME280;41294;42.666;23.350;2023-02-03T09:00:38;95602.25;;;11.97;41.75
55424;BME280;41294;42.666;23.350;2023-02-03T09:03:04;95593.31;;;11.02;44.13
55424;BME280;41294;42.666;23.350;2023-02-03T09:05:31;95604.75;;;11.79;42.71
55424;BME280;41294;42.666;23.350;2023-02-03T09:07:58;95595.78;;;11.31;43.42
55424;BME280;41294;42.666;23.350;2023-02-03T09:10:24;95600.94;;;11.34;43.61
55424;BME280;41294;42.666;23.350;2023-02-03T09:12:49;95603.41;;;10.29;45.63
55424;BME280;41294;42.666;23.350;2023-02-03T09:15:14;95584.69;;;10.89;44.59
55424;BME280;41294;42.666;23.350;2023-02-03T09:17:40;95588.66;;;11.06;44.66
55424;BME280;41294;42.666;23.350;2023-02-03T09:20:06;95585.06;;;11.13;44.80
55424;BME280;41294;42.666;23.350;2023-02-03T09:22:31;95584.69;;;10.77;44.82
55424;BME280;41294;42.666;23.350;2023-02-03T09:24:57;95584.06;;;10.61;46.01
55424;BME280;41294;42.666;23.350;2023-02-03T09:27:22;95587.75;;;10.63;45.67
55424;BME280;41294;42.666;23.350;2023-02-03T09:29:48;95585.50;;;11.11;44.99
55424;BME280;41294;42.666;23.350;2023-02-03T09:32:13;95585.44;;;10.90;45.73
55424;BME280;41294;42.666;23.350;2023-02-03T09:34:38;95588.78;;;10.78;45.12
55424;BME280;41294;42.666;23.350;2023-02-03T09:37:06;95575.41;;;11.10;44.81
55424;BME280;41294;42.666;23.350;2023-02-03T09:39:31;95586.91;;;10.91;45.03
55424;BME280;41294;42.666;23.350;2023-02-03T09:42:12;95587.72;;;11.13;44.13
55424;BME280;41294;42.666;23.350;2023-02-03T09:44:47;95580.91;;;10.53;45.94
55424;BME280;41294;42.666;23.350;2023-02-03T09:47:19;95577.16;;;11.25;44.58
55424;BME280;41294;42.666;23.350;2023-02-03T09:49:52;95578.88;;;11.07;43.73
55424;BME280;41294;42.666;23.350;2023-02-03T09:52:31;95581.94;;;10.56;44.33
55424;BME280;41294;42.666;23.350;2023-02-03T09:57:26;95576.47;;;10.50;43.17
55424;BME280;41294;42.666;23.350;2023-02-03T09:59:54;95574.66;;;10.97;42.86
55424;BME280;41294;42.666;23.350;2023-02-03T10:05:21;95570.13;;;10.85;43.25
55424;BME280;41294;42.666;23.350;2023-02-03T10:08:01;95566.78;;;10.60;43.94
55424;BME280;41294;42.666;23.350;2023-02-03T10:13:10;95557.97;;;10.66;43.29
55424;BME280;41294;42.666;23.350;2023-02-03T10:18:13;95555.75;;;9.71;44.12
55424;BME280;41294;42.666;23.350;2023-02-03T10:20:50;95553.09;;;9.86;44.48
55424;BME280;41294;42.666;23.350;2023-02-03T10:23:34;95561.38;;;9.28;45.54
55424;BME280;41294;42.666;23.350;2023-02-03T10:26:03;95553.38;;;9.76;45.65
55424;BME280;41294;42.666;23.350;2023-02-03T10:28:33;95554.06;;;9.92;45.77
55424;BME280;41294;42.666;23.350;2023-02-03T10:31:06;95552.03;;;9.96;45.06
55424;BME280;41294;42.666;23.350;2023-02-03T10:33:37;95555.00;;;9.58;46.24
55424;BME280;41294;42.666;23.350;2023-02-03T10:36:31;95545.91;;;8.86;45.34
55424;BME280;41294;42.666;23.350;2023-02-03T10:39:06;95546.63;;;8.71;46.38
55424;BME280;41294;42.666;23.350;2023-02-03T10:41:35;95542.94;;;8.52;45.46
55424;BME280;41294;42.666;23.350;2023-02-03T10:44:04;95550.78;;;8.36;46.03
55424;BME280;41294;42.666;23.350;2023-02-03T10:46:35;95547.41;;;8.36;46.35
55424;BME280;41294;42.666;23.350;2023-02-03T10:49:02;95537.16;;;8.25;46.91
55424;BME280;41294;42.666;23.350;2023-02-03T10:51:38;95539.16;;;7.83;48.69
55424;BME280;41294;42.666;23.350;2023-02-03T10:54:30;95539.00;;;7.51;49.66
55424;BME280;41294;42.666;23.350;2023-02-03T10:56:57;95541.78;;;7.21;49.76
55424;BME280;41294;42.666;23.350;2023-02-03T10:59:30;95544.44;;;7.60;48.99
55424;BME280;41294;42.666;23.350;2023-02-03T11:01:57;95559.78;;;7.19;48.84
55424;BME280;41294;42.666;23.350;2023-02-03T11:04:26;95556.75;;;7.21;46.75
55424;BME280;41294;42.666;23.350;2023-02-03T11:06:57;95544.75;;;6.77;46.40
55424;BME280;41294;42.666;23.350;2023-02-03T11:09:37;95548.41;;;6.83;47.04
55424;BME280;41294;42.666;23.350;2023-02-03T11:14:38;95547.38;;;7.00;46.62
55424;BME280;41294;42.666;23.350;2023-02-03T11:17:11;95544.06;;;7.19;47.18
55424;BME280;41294;42.666;23.350;2023-02-03T11:19:38;95535.78;;;7.82;45.62
55424;BME280;41294;42.666;23.350;2023-02-03T11:22:04;95545.03;;;7.87;45.52
55424;BME280;41294;42.666;23.350;2023-02-03T11:24:37;95534.44;;;7.55;45.72
55424;BME280;41294;42.666;23.350;2023-02-03T11:27:15;95531.63;;;7.46;45.23
55424;BME280;41294;42.666;23.350;2023-02-03T11:29:45;95523.69;;;7.88;44.63
55424;BME280;41294;42.666;23.350;2023-02-03T11:32:22;95518.97;;;8.18;44.40
55424;BME280;41294;42.666;23.350;2023-02-03T11:34:56;95511.34;;;8.05;44.00
55424;BME280;41294;42.666;23.350;2023-02-03T11:37:38;95518.66;;;8.32;43.31
55424;BME280;41294;42.666;23.350;2023-02-03T11:42:37;95497.34;;;8.94;42.35
55424;BME280;41294;42.666;23.350;2023-02-03T11:53:11;95497.66;;;8.96;41.85
55424;BME280;41294;42.666;23.350;2023-02-03T11:55:49;95495.88;;;8.77;42.56
55424;BME280;41294;42.666;23.350;2023-02-03T12:01:51;95496.78;;;8.55;40.92
55424;BME280;41294;42.666;23.350;2023-02-03T12:10:30;95486.53;;;8.60;40.59
55424;BME280;41294;42.666;23.350;2023-02-03T12:15:42;95494.19;;;9.15;37.68
55424;BME280;41294;42.666;23.350;2023-02-03T12:23:25;95506.03;;;8.27;39.97
55424;BME280;41294;42.666;23.350;2023-02-03T12:26:24;95505.41;;;7.85;39.75
55424;BME280;41294;42.666;23.350;2023-02-03T12:31:44;95512.78;;;7.90;39.02
55424;BME280;41294;42.666;23.350;2023-02-03T12:34:23;95505.63;;;7.74;40.00
55424;BME280;41294;42.666;23.350;2023-02-03T12:39:42;95504.00;;;7.61;40.29
55424;BME280;41294;42.666;23.350;2023-02-03T12:47:29;95494.13;;;7.10;42.31
55424;BME280;41294;42.666;23.350;2023-02-03T12:49:59;95484.06;;;7.09;42.10
55424;BME280;41294;42.666;23.350;2023-02-03T12:52:39;95490.78;;;6.87;43.05
55424;BME280;41294;42.666;23.350;2023-02-03T12:55:30;95496.13;;;6.80;44.25
55424;BME280;41294;42.666;23.350;2023-02-03T13:01:07;95476.72;;;7.00;44.17
55424;BME280;41294;42.666;23.350;2023-02-03T13:03:51;95471.03;;;7.05;44.28
55424;BME280;41294;42.666;23.350;2023-02-03T13:06:28;95474.56;;;6.95;44.58
55424;BME280;41294;42.666;23.350;2023-02-03T13:14:20;95487.47;;;7.06;46.03
55424;BME280;41294;42.666;23.350;2023-02-03T13:16:54;95475.63;;;6.78;47.37
55424;BME280;41294;42.666;23.350;2023-02-03T13:19:26;95471.88;;;6.79;47.41
55424;BME280;41294;42.666;23.350;2023-02-03T13:21:53;95476.69;;;6.81;47.68
55424;BME280;41294;42.666;23.350;2023-02-03T13:24:22;95480.25;;;6.90;47.73
55424;BME280;41294;42.666;23.350;2023-02-03T13:27:20;95477.81;;;6.80;47.86
55424;BME280;41294;42.666;23.350;2023-02-03T13:30:10;95469.94;;;6.60;47.99
55424;BME280;41294;42.666;23.350;2023-02-03T13:33:04;95468.81;;;6.35;49.09
55424;BME280;41294;42.666;23.350;2023-02-03T13:36:03;95460.44;;;6.47;49.34
55424;BME280;41294;42.666;23.350;2023-02-03T13:38:48;95475.94;;;6.57;48.97
55424;BME280;41294;42.666;23.350;2023-02-03T13:41:24;95464.00;;;6.34;50.05
55424;BME280;41294;42.666;23.350;2023-02-03T13:43:53;95468.88;;;6.54;49.16
55424;BME280;41294;42.666;23.350;2023-02-03T13:46:27;95473.38;;;6.54;49.43
55424;BME280;41294;42.666;23.350;2023-02-03T13:48:59;95467.59;;;6.43;50.14
55424;BME280;41294;42.666;23.350;2023-02-03T13:51:32;95476.25;;;6.40;50.05
55424;BME280;41294;42.666;23.350;2023-02-03T13:54:05;95486.25;;;6.19;49.39
55424;BME280;41294;42.666;23.350;2023-02-03T13:56:32;95483.06;;;6.08;50.08
55424;BME280;41294;42.666;23.350;2023-02-03T14:01:34;95474.41;;;5.84;51.36
55424;BME280;41294;42.666;23.350;2023-02-03T14:04:03;95475.78;;;5.92;51.84
55424;BME280;41294;42.666;23.350;2023-02-03T14:09:00;95479.00;;;6.03;52.44
55424;BME280;41294;42.666;23.350;2023-02-03T14:21:59;95460.81;;;5.67;54.68
55424;BME280;41294;42.666;23.350;2023-02-03T14:24:45;95463.56;;;5.56;54.10
55424;BME280;41294;42.666;23.350;2023-02-03T14:27:24;95455.25;;;5.65;53.62
55424;BME280;41294;42.666;23.350;2023-02-03T14:30:13;95461.38;;;5.51;54.57
55424;BME280;41294;42.666;23.350;2023-02-03T14:32:53;95454.38;;;5.45;54.53
55424;BME280;41294;42.666;23.350;2023-02-03T14:35:22;95459.91;;;5.50;54.68
55424;BME280;41294;42.666;23.350;2023-02-03T14:37:57;95459.97;;;5.43;54.69
55424;BME280;41294;42.666;23.350;2023-02-03T14:45:30;95460.19;;;5.26;54.35
55424;BME280;41294;42.666;23.350;2023-02-03T14:58:59;95450.50;;;5.26;52.31
55424;BME280;41294;42.666;23.350;2023-02-03T15:09:15;95427.19;;;5.12;51.41
55424;BME280;41294;42.666;23.350;2023-02-03T15:11:45;95425.41;;;5.02;50.82
55424;BME280;41294;42.666;23.350;2023-02-03T15:14:29;95420.16;;;5.06;51.42